Provincetown III — WDB8185 — position and weather

sailwx.info

Track history (hours):
 
Tides and Currents Weather Stations Pressure Air Temp Water Temp Dewpoint Dewpoint Depression Visibility Wind Speed Wind Dir Waves Ship Positions

Provincetown III

Owner: MYSTIC FERRY LEASING LLC, BOSTON, MA. More information available from US FCC via Universal Licensing System and Coast Guard Vessel Documentation Center.

Last reported at 2017-Nov-17 22:44 UTC. Time now 2017-Nov-21 08:16 UTC.
Position N 42°21' W 071°02'.

Length 30 m; draft 2 m.

Type: Passenger vessel. MMSI: 366954420.

Date/timePositionNaut miles runAvg speedWind from/ knotsBaromVisibWave heightAir tempDewpointWater temp
2017-Nov-17 22:44N 42°21' W 071°02'0 0.4
2017-Nov-17 22:30N 42°21' W 071°03'1 2.2
2017-Nov-17 22:00N 42°21' W 071°01'1 1.2
2017-Nov-17 21:11N 42°21' W 071°02'0 0.0
2017-Nov-17 13:48N 42°21' W 071°03'3 9.8
2017-Nov-17 13:30N 42°18' W 071°02'3 5.9
2017-Nov-17 13:00N 42°21' W 071°03'2 3.3
2017-Nov-17 12:17N 42°19' W 071°01'2 0.2
2017-Nov-16 23:14N 42°21' W 071°02'313.0
2017-Nov-16 23:00N 42°18' W 071°02'3 6.2
2017-Nov-16 22:30N 42°21' W 071°02'1 1.3
2017-Nov-16 22:00N 42°21' W 071°02'1 0.1
2017-Nov-16 13:49N 42°21' W 071°02'3 7.9
2017-Nov-16 13:30N 42°19' W 071°02'3 5.3
2017-Nov-16 13:00N 42°21' W 071°03'2 2.8
2017-Nov-16 12:10N 42°19' W 071°01'212.2
2017-Nov-16 12:00N 42°21' W 071°02'0 0.8
2017-Nov-16 11:30N 42°21' W 071°02'0 0.0
2017-Nov-15 23:15N 42°21' W 071°02'2 5.5
2017-Nov-15 22:51N 42°19' W 071°01'2 6.8
2017-Nov-15 22:30N 42°21' W 071°02'0 0.4
2017-Nov-15 21:59N 42°21' W 071°02'0 0.0
2017-Nov-15 13:49N 42°21' W 071°02'3 7.9
2017-Nov-15 13:27N 42°18' W 071°02'3 6.6
2017-Nov-15 12:59N 42°21' W 071°03'2 3.3
2017-Nov-15 12:16N 42°19' W 071°01'2 8.0
2017-Nov-15 11:59N 42°21' W 071°02'0 0.0
2017-Nov-14 23:23N 42°21' W 071°02'2 3.1
2017-Nov-14 22:49N 42°20' W 071°00'2 5.3
2017-Nov-14 22:31N 42°21' W 071°02'0 0.2
2017-Nov-14 21:59N 42°21' W 071°02'0 0.0
2017-Nov-14 13:49N 42°21' W 071°02'3 8.4
2017-Nov-14 13:28N 42°18' W 071°02'3 5.9
2017-Nov-14 12:58N 42°21' W 071°03'2 3.9
2017-Nov-14 12:21N 42°19' W 071°01'2 5.7
2017-Nov-14 11:57N 42°21' W 071°02'0 0.1
2017-Nov-14 11:30N 42°21' W 071°02'0 0.0
2017-Nov-13 23:18N 42°21' W 071°02'2 3.3
2017-Nov-13 22:49N 42°20' W 071°00'0 0.2
2017-Nov-13 22:28N 42°20' W 071°00'2 3.4
2017-Nov-13 21:59N 42°21' W 071°02'  
2017-Nov-10 22:05N 42°19' W 071°01'221.1
2017-Nov-10 22:00N 42°21' W 071°02'1 1.6
2017-Nov-10 21:30N 42°21' W 071°03'0 0.0
2017-Nov-10 13:51N 42°21' W 071°02'2 2.9
2017-Nov-10 13:08N 42°20' W 071°00'216.6
2017-Nov-10 13:00N 42°21' W 071°03'2 3.2
2017-Nov-10 12:14N 42°19' W 071°00'2 0.2
2017-Nov-09 23:17N 42°21' W 071°02'3 7.1
2017-Nov-09 22:54N 42°19' W 071°02'3 7.1
2017-Nov-09 22:30N 42°21' W 071°02'0 0.1
2017-Nov-09 21:58N 42°21' W 071°02'0 0.0
2017-Nov-09 13:48N 42°21' W 071°02'2 2.7
2017-Nov-09 13:07N 42°20' W 071°00'212.7
2017-Nov-09 12:57N 42°21' W 071°03'2 3.4
2017-Nov-09 12:16N 42°19' W 071°01'2 8.4
2017-Nov-09 12:00N 42°21' W 071°02'0 0.0
2017-Nov-09 11:30N 42°21' W 071°02'0 0.0
2017-Nov-08 23:17N 42°21' W 071°02'2 5.3
2017-Nov-08 22:52N 42°19' W 071°01'2 6.4
2017-Nov-08 22:30N 42°21' W 071°02'0 0.4
2017-Nov-08 22:00N 42°21' W 071°02'0 0.0
2017-Nov-08 13:49N 42°21' W 071°02'3 8.1
2017-Nov-08 13:26N 42°18' W 071°02'3 6.9
2017-Nov-08 12:59N 42°21' W 071°02'2 3.0
2017-Nov-08 12:12N 42°19' W 071°01'211.5
2017-Nov-08 12:00N 42°21' W 071°02'0 0.0
2017-Nov-07 23:15N 42°21' W 071°02'2 5.8
2017-Nov-07 22:52N 42°19' W 071°01'  
Track history (hours):
 
Tides and Currents Weather Stations Pressure Air Temp Water Temp Dewpoint Dewpoint Depression Visibility Wind Speed Wind Dir Waves Ship Positions

Provincetown III

Owner: MYSTIC FERRY LEASING LLC, BOSTON, MA. More information available from US FCC via Universal Licensing System and Coast Guard Vessel Documentation Center.

Last reported at 2017-Nov-17 22:44 UTC. Time now 2017-Nov-21 08:16 UTC.
Position N 42°21' W 071°02'.

Length 30 m; draft 2 m.

Type: Passenger vessel. MMSI: 366954420.

Date/timePositionNaut miles runAvg speedWind from/ knotsBaromVisibWave heightAir tempDewpointWater temp
2017-Nov-17 22:44N 42°21' W 071°02'0 0.4
2017-Nov-17 22:30N 42°21' W 071°03'1 2.2
2017-Nov-17 22:00N 42°21' W 071°01'1 1.2
2017-Nov-17 21:11N 42°21' W 071°02'0 0.0
2017-Nov-17 13:48N 42°21' W 071°03'3 9.8
2017-Nov-17 13:30N 42°18' W 071°02'3 5.9
2017-Nov-17 13:00N 42°21' W 071°03'2 3.3
2017-Nov-17 12:17N 42°19' W 071°01'2 0.2
2017-Nov-16 23:14N 42°21' W 071°02'313.0
2017-Nov-16 23:00N 42°18' W 071°02'3 6.2
2017-Nov-16 22:30N 42°21' W 071°02'1 1.3
2017-Nov-16 22:00N 42°21' W 071°02'1 0.1
2017-Nov-16 13:49N 42°21' W 071°02'3 7.9
2017-Nov-16 13:30N 42°19' W 071°02'3 5.3
2017-Nov-16 13:00N 42°21' W 071°03'2 2.8
2017-Nov-16 12:10N 42°19' W 071°01'212.2
2017-Nov-16 12:00N 42°21' W 071°02'0 0.8
2017-Nov-16 11:30N 42°21' W 071°02'0 0.0
2017-Nov-15 23:15N 42°21' W 071°02'2 5.5
2017-Nov-15 22:51N 42°19' W 071°01'2 6.8
2017-Nov-15 22:30N 42°21' W 071°02'0 0.4
2017-Nov-15 21:59N 42°21' W 071°02'0 0.0
2017-Nov-15 13:49N 42°21' W 071°02'3 7.9
2017-Nov-15 13:27N 42°18' W 071°02'3 6.6
2017-Nov-15 12:59N 42°21' W 071°03'2 3.3
2017-Nov-15 12:16N 42°19' W 071°01'2 8.0
2017-Nov-15 11:59N 42°21' W 071°02'0 0.0
2017-Nov-14 23:23N 42°21' W 071°02'2 3.1
2017-Nov-14 22:49N 42°20' W 071°00'2 5.3
2017-Nov-14 22:31N 42°21' W 071°02'0 0.2
2017-Nov-14 21:59N 42°21' W 071°02'0 0.0
2017-Nov-14 13:49N 42°21' W 071°02'3 8.4
2017-Nov-14 13:28N 42°18' W 071°02'3 5.9
2017-Nov-14 12:58N 42°21' W 071°03'2 3.9
2017-Nov-14 12:21N 42°19' W 071°01'2 5.7
2017-Nov-14 11:57N 42°21' W 071°02'0 0.1
2017-Nov-14 11:30N 42°21' W 071°02'0 0.0
2017-Nov-13 23:18N 42°21' W 071°02'2 3.3
2017-Nov-13 22:49N 42°20' W 071°00'0 0.2
2017-Nov-13 22:28N 42°20' W 071°00'2 3.4
2017-Nov-13 21:59N 42°21' W 071°02'  
2017-Nov-10 22:05N 42°19' W 071°01'221.1
2017-Nov-10 22:00N 42°21' W 071°02'1 1.6
2017-Nov-10 21:30N 42°21' W 071°03'0 0.0
2017-Nov-10 13:51N 42°21' W 071°02'2 2.9
2017-Nov-10 13:08N 42°20' W 071°00'216.6
2017-Nov-10 13:00N 42°21' W 071°03'2 3.2
2017-Nov-10 12:14N 42°19' W 071°00'2 0.2
2017-Nov-09 23:17N 42°21' W 071°02'3 7.1
2017-Nov-09 22:54N 42°19' W 071°02'3 7.1
2017-Nov-09 22:30N 42°21' W 071°02'0 0.1
2017-Nov-09 21:58N 42°21' W 071°02'0 0.0
2017-Nov-09 13:48N 42°21' W 071°02'2 2.7
2017-Nov-09 13:07N 42°20' W 071°00'212.7
2017-Nov-09 12:57N 42°21' W 071°03'2 3.4
2017-Nov-09 12:16N 42°19' W 071°01'2 8.4
2017-Nov-09 12:00N 42°21' W 071°02'0 0.0
2017-Nov-09 11:30N 42°21' W 071°02'0 0.0
2017-Nov-08 23:17N 42°21' W 071°02'2 5.3
2017-Nov-08 22:52N 42°19' W 071°01'2 6.4
2017-Nov-08 22:30N 42°21' W 071°02'0 0.4
2017-Nov-08 22:00N 42°21' W 071°02'0 0.0
2017-Nov-08 13:49N 42°21' W 071°02'3 8.1
2017-Nov-08 13:26N 42°18' W 071°02'3 6.9
2017-Nov-08 12:59N 42°21' W 071°02'2 3.0
2017-Nov-08 12:12N 42°19' W 071°01'211.5
2017-Nov-08 12:00N 42°21' W 071°02'0 0.0
2017-Nov-07 23:15N 42°21' W 071°02'2 5.8
2017-Nov-07 22:52N 42°19' W 071°01'  

Dump ship's entire track history